EIN34E EIDW-EBBR
Flight info
| Callsign | EIN34E |
|---|---|
| Flight time | 1h 29m |
| Altitude | 37000 |
| Route | PESIT2J PESIT DCT BAKUR DCT GUBJE DCT DAVAZ DCT AVZAC DCT ICOSA DCT RUHUN DCT UNZIB DCT NUCHU L607 BIG/N0398F290 Q70 VABIK/N0359F230 Q70 KOK |
| Aircraft | A320/M-SDE3FGHIRWY/LB1 |
Departure
| Time | 2026-05-07 09:35 |
|---|---|
| Airport | Dublin Airport (EIDW) |
Arrival
| Time | 2026-05-07 11:04 |
|---|---|
| Airport | Brussels Airport (EBBR) |
| Time | Latitude | Longitude | Altitude | Speed | Heading |
|---|---|---|---|---|---|
| 2026-05-07 09:04 | 53.42413 | -6.24439 | 249 ft | 0 kts | 135° |
| 2026-05-07 09:25 | 53.42420 | -6.24450 | 250 ft | 2 kts | 134° |
| 2026-05-07 09:25 | 53.42430 | -6.24468 | 250 ft | 2 kts | 135° |
| 2026-05-07 09:25 | 53.42441 | -6.24486 | 250 ft | 2 kts | 135° |
| 2026-05-07 09:26 | 53.42450 | -6.24502 | 250 ft | 1 kts | 161° |
| 2026-05-07 09:26 | 53.42464 | -6.24499 | 250 ft | 2 kts | 221° |
| 2026-05-07 09:26 | 53.42468 | -6.24490 | 250 ft | 1 kts | 251° |
| 2026-05-07 09:26 | 53.42470 | -6.24482 | 250 ft | 0 kts | 243° |
| 2026-05-07 09:28 | 53.42469 | -6.24488 | 250 ft | 1 kts | 243° |
| 2026-05-07 09:28 | 53.42457 | -6.24526 | 250 ft | 5 kts | 242° |
| 2026-05-07 09:28 | 53.42433 | -6.24601 | 250 ft | 8 kts | 243° |
| 2026-05-07 09:29 | 53.42394 | -6.24706 | 250 ft | 12 kts | 232° |
| 2026-05-07 09:29 | 53.42362 | -6.24836 | 250 ft | 13 kts | 293° |
| 2026-05-07 09:29 | 53.42444 | -6.24920 | 250 ft | 14 kts | 337° |
| 2026-05-07 09:29 | 53.42541 | -6.24990 | 250 ft | 15 kts | 336° |
| 2026-05-07 09:30 | 53.42640 | -6.25063 | 250 ft | 15 kts | 336° |
| 2026-05-07 09:30 | 53.42721 | -6.25168 | 250 ft | 14 kts | 310° |
| 2026-05-07 09:30 | 53.42807 | -6.25251 | 250 ft | 14 kts | 336° |
| 2026-05-07 09:30 | 53.42898 | -6.25317 | 250 ft | 14 kts | 337° |
| 2026-05-07 09:31 | 53.42994 | -6.25389 | 250 ft | 15 kts | 336° |
| 2026-05-07 09:31 | 53.43096 | -6.25462 | 250 ft | 16 kts | 337° |
| 2026-05-07 09:31 | 53.43205 | -6.25541 | 250 ft | 17 kts | 336° |
| 2026-05-07 09:31 | 53.43316 | -6.25625 | 250 ft | 17 kts | 335° |
| 2026-05-07 09:32 | 53.43405 | -6.25599 | 250 ft | 15 kts | 76° |
| 2026-05-07 09:32 | 53.43399 | -6.25418 | 250 ft | 16 kts | 96° |
| 2026-05-07 09:32 | 53.43389 | -6.25229 | 250 ft | 16 kts | 96° |
| 2026-05-07 09:32 | 53.43378 | -6.25028 | 250 ft | 17 kts | 95° |
| 2026-05-07 09:33 | 53.43367 | -6.24820 | 250 ft | 18 kts | 96° |
| 2026-05-07 09:33 | 53.43357 | -6.24638 | 250 ft | 11 kts | 88° |
| 2026-05-07 09:33 | 53.43415 | -6.24563 | 250 ft | 12 kts | 2° |
| 2026-05-07 09:33 | 53.43505 | -6.24561 | 250 ft | 13 kts | 331° |
| 2026-05-07 09:34 | 53.43533 | -6.24710 | 250 ft | 14 kts | 275° |
| 2026-05-07 09:34 | 53.43544 | -6.24923 | 250 ft | 29 kts | 275° |
| 2026-05-07 09:34 | 53.43584 | -6.25687 | 250 ft | 103 kts | 275° |
| 2026-05-07 09:34 | 53.43675 | -6.27219 | 303 ft | 157 kts | 275° |
| 2026-05-07 09:35 | 53.43805 | -6.29177 | 734 ft | 175 kts | 275° |
| 2026-05-07 09:35 | 53.43946 | -6.31196 | 1387 ft | 183 kts | 275° |
| 2026-05-07 09:35 | 53.44134 | -6.33354 | 2092 ft | 195 kts | 285° |
| 2026-05-07 09:35 | 53.44759 | -6.35429 | 2753 ft | 212 kts | 308° |
| 2026-05-07 09:36 | 53.45927 | -6.36987 | 3535 ft | 223 kts | 329° |
| 2026-05-07 09:36 | 53.47258 | -6.38385 | 4213 ft | 237 kts | 319° |
| 2026-05-07 09:36 | 53.48487 | -6.40327 | 4853 ft | 252 kts | 309° |
| 2026-05-07 09:36 | 53.49635 | -6.42639 | 5583 ft | 263 kts | 304° |
| 2026-05-07 09:37 | 53.50689 | -6.45108 | 6436 ft | 264 kts | 295° |
| 2026-05-07 09:37 | 53.51128 | -6.48048 | 7271 ft | 260 kts | 264° |
| 2026-05-07 09:37 | 53.50655 | -6.50913 | 8077 ft | 258 kts | 238° |
| 2026-05-07 09:37 | 53.49453 | -6.53072 | 8646 ft | 258 kts | 212° |
| 2026-05-07 09:38 | 53.47780 | -6.54066 | 8947 ft | 259 kts | 186° |
| 2026-05-07 09:38 | 53.46007 | -6.53667 | 8985 ft | 261 kts | 163° |
| 2026-05-07 09:38 | 53.44300 | -6.52674 | 8993 ft | 260 kts | 163° |
| 2026-05-07 09:38 | 53.42581 | -6.51706 | 8972 ft | 259 kts | 163° |
| 2026-05-07 09:39 | 53.40860 | -6.50751 | 8946 ft | 258 kts | 163° |
| 2026-05-07 09:39 | 53.39144 | -6.49799 | 8937 ft | 258 kts | 163° |
| 2026-05-07 09:39 | 53.37432 | -6.48853 | 8934 ft | 258 kts | 163° |
| 2026-05-07 09:39 | 53.35733 | -6.47917 | 8942 ft | 258 kts | 163° |
| 2026-05-07 09:40 | 53.34035 | -6.46983 | 8951 ft | 258 kts | 163° |
| 2026-05-07 09:40 | 53.32334 | -6.46051 | 8954 ft | 258 kts | 163° |
| 2026-05-07 09:40 | 53.30652 | -6.44964 | 8957 ft | 261 kts | 158° |
| 2026-05-07 09:40 | 53.28978 | -6.43678 | 9269 ft | 272 kts | 157° |
| 2026-05-07 09:41 | 53.27270 | -6.42352 | 10271 ft | 269 kts | 158° |
| 2026-05-07 09:41 | 53.25577 | -6.41043 | 11006 ft | 277 kts | 157° |
| 2026-05-07 09:41 | 53.23821 | -6.39688 | 11613 ft | 288 kts | 157° |
| 2026-05-07 09:41 | 53.21977 | -6.38262 | 12405 ft | 292 kts | 157° |
| 2026-05-07 09:42 | 53.20146 | -6.36847 | 13184 ft | 297 kts | 157° |
| 2026-05-07 09:42 | 53.18263 | -6.35393 | 13932 ft | 300 kts | 157° |
| 2026-05-07 09:42 | 53.16352 | -6.33918 | 14639 ft | 306 kts | 157° |
| 2026-05-07 09:42 | 53.14422 | -6.32430 | 15332 ft | 311 kts | 157° |
| 2026-05-07 09:43 | 53.12452 | -6.30913 | 16033 ft | 315 kts | 157° |
| 2026-05-07 09:43 | 53.10485 | -6.29399 | 16721 ft | 318 kts | 157° |
| 2026-05-07 09:43 | 53.08470 | -6.27851 | 17398 ft | 322 kts | 157° |
| 2026-05-07 09:43 | 53.06430 | -6.26285 | 18043 ft | 326 kts | 157° |
| 2026-05-07 09:44 | 53.04367 | -6.24703 | 18691 ft | 329 kts | 157° |
| 2026-05-07 09:44 | 53.02285 | -6.23108 | 19330 ft | 332 kts | 157° |
| 2026-05-07 09:44 | 53.00189 | -6.21504 | 19954 ft | 336 kts | 157° |
| 2026-05-07 09:44 | 52.98062 | -6.19879 | 20563 ft | 339 kts | 157° |
| 2026-05-07 09:45 | 52.95923 | -6.18246 | 21153 ft | 342 kts | 157° |
| 2026-05-07 09:45 | 52.93788 | -6.16614 | 21727 ft | 344 kts | 157° |
| 2026-05-07 09:45 | 52.91616 | -6.14942 | 22297 ft | 347 kts | 157° |
| 2026-05-07 09:45 | 52.89424 | -6.13253 | 22781 ft | 350 kts | 156° |
| 2026-05-07 09:46 | 52.87203 | -6.11544 | 22993 ft | 351 kts | 156° |
| 2026-05-07 09:46 | 52.84996 | -6.09849 | 23047 ft | 350 kts | 156° |
| 2026-05-07 09:46 | 52.82787 | -6.08154 | 23095 ft | 349 kts | 156° |
| 2026-05-07 09:46 | 52.80618 | -6.06492 | 23072 ft | 348 kts | 156° |
| 2026-05-07 09:47 | 52.78416 | -6.04806 | 23036 ft | 347 kts | 156° |
| 2026-05-07 09:47 | 52.76220 | -6.03127 | 23018 ft | 347 kts | 156° |
| 2026-05-07 09:47 | 52.74046 | -6.01467 | 23010 ft | 347 kts | 156° |
| 2026-05-07 09:47 | 52.71848 | -5.99791 | 22995 ft | 346 kts | 156° |
| 2026-05-07 09:48 | 52.69685 | -5.98143 | 22982 ft | 346 kts | 156° |
| 2026-05-07 09:48 | 52.67477 | -5.96464 | 22976 ft | 346 kts | 156° |
| 2026-05-07 09:48 | 52.65310 | -5.94816 | 22974 ft | 346 kts | 156° |
| 2026-05-07 09:48 | 52.63135 | -5.93166 | 22978 ft | 345 kts | 156° |
| 2026-05-07 09:49 | 52.60879 | -5.91457 | 22984 ft | 345 kts | 156° |
| 2026-05-07 09:49 | 52.58714 | -5.89818 | 22987 ft | 346 kts | 156° |
| 2026-05-07 09:49 | 52.56520 | -5.88159 | 22990 ft | 346 kts | 156° |
| 2026-05-07 09:49 | 52.54358 | -5.86526 | 22986 ft | 346 kts | 156° |
| 2026-05-07 09:50 | 52.52172 | -5.84876 | 23045 ft | 350 kts | 156° |
| 2026-05-07 09:50 | 52.49942 | -5.83195 | 23471 ft | 353 kts | 156° |
| 2026-05-07 09:50 | 52.47718 | -5.81521 | 23964 ft | 353 kts | 156° |
| 2026-05-07 09:50 | 52.45512 | -5.79863 | 24432 ft | 355 kts | 156° |
| 2026-05-07 09:51 | 52.43252 | -5.78166 | 24903 ft | 358 kts | 156° |
| 2026-05-07 09:51 | 52.40969 | -5.76506 | 25371 ft | 361 kts | 158° |
| 2026-05-07 09:51 | 52.38642 | -5.75076 | 25824 ft | 363 kts | 161° |
| 2026-05-07 09:51 | 52.36215 | -5.73852 | 26311 ft | 365 kts | 163° |
| 2026-05-07 09:52 | 52.33781 | -5.72672 | 26801 ft | 368 kts | 163° |
| 2026-05-07 09:52 | 52.31315 | -5.71477 | 27291 ft | 371 kts | 163° |
| 2026-05-07 09:52 | 52.28860 | -5.70288 | 27776 ft | 373 kts | 163° |
| 2026-05-07 09:52 | 52.26369 | -5.69081 | 28256 ft | 376 kts | 163° |
| 2026-05-07 09:53 | 52.23879 | -5.67748 | 28718 ft | 378 kts | 159° |
| 2026-05-07 09:53 | 52.21454 | -5.66183 | 29167 ft | 380 kts | 157° |
| 2026-05-07 09:53 | 52.19007 | -5.64529 | 29615 ft | 383 kts | 157° |
| 2026-05-07 09:53 | 52.16529 | -5.62859 | 30067 ft | 385 kts | 157° |
| 2026-05-07 09:54 | 52.14079 | -5.61210 | 30507 ft | 387 kts | 157° |
| 2026-05-07 09:54 | 52.11595 | -5.59540 | 30936 ft | 389 kts | 157° |
| 2026-05-07 09:54 | 52.09079 | -5.57852 | 31360 ft | 392 kts | 156° |
| 2026-05-07 09:54 | 52.06555 | -5.56161 | 31751 ft | 394 kts | 156° |
| 2026-05-07 09:55 | 52.04016 | -5.54459 | 32119 ft | 396 kts | 156° |
| 2026-05-07 09:55 | 52.01517 | -5.52698 | 32473 ft | 398 kts | 155° |
| 2026-05-07 09:55 | 51.98988 | -5.50860 | 32826 ft | 400 kts | 155° |
| 2026-05-07 09:55 | 51.96453 | -5.49017 | 33154 ft | 402 kts | 154° |
| 2026-05-07 09:56 | 51.93956 | -5.46950 | 33461 ft | 404 kts | 148° |
| 2026-05-07 09:56 | 51.91632 | -5.44428 | 33758 ft | 405 kts | 142° |
| 2026-05-07 09:56 | 51.89483 | -5.41435 | 34056 ft | 407 kts | 135° |
| 2026-05-07 09:56 | 51.87586 | -5.38072 | 34340 ft | 409 kts | 128° |
| 2026-05-07 09:57 | 51.85921 | -5.34296 | 34619 ft | 411 kts | 122° |
| 2026-05-07 09:57 | 51.84547 | -5.30223 | 34891 ft | 413 kts | 116° |
| 2026-05-07 09:57 | 51.83321 | -5.26019 | 35163 ft | 415 kts | 115° |
| 2026-05-07 09:57 | 51.82123 | -5.21828 | 35407 ft | 417 kts | 115° |
| 2026-05-07 09:58 | 51.80895 | -5.17543 | 35636 ft | 418 kts | 115° |
| 2026-05-07 09:58 | 51.79713 | -5.13306 | 35850 ft | 420 kts | 114° |
| 2026-05-07 09:58 | 51.78640 | -5.08898 | 36056 ft | 423 kts | 110° |
| 2026-05-07 09:58 | 51.77714 | -5.04382 | 36201 ft | 424 kts | 107° |
| 2026-05-07 09:59 | 51.76951 | -4.99814 | 36309 ft | 427 kts | 104° |
| 2026-05-07 09:59 | 51.76342 | -4.95167 | 36411 ft | 428 kts | 102° |
| 2026-05-07 09:59 | 51.75780 | -4.90433 | 36506 ft | 430 kts | 101° |
| 2026-05-07 10:00 | 51.74659 | -4.80952 | 36707 ft | 434 kts | 101° |
| 2026-05-07 10:00 | 51.74091 | -4.76183 | 36808 ft | 435 kts | 101° |
| 2026-05-07 10:00 | 51.73518 | -4.71401 | 36903 ft | 436 kts | 101° |
| 2026-05-07 10:01 | 51.72360 | -4.61816 | 36996 ft | 438 kts | 101° |
| 2026-05-07 10:01 | 51.71196 | -4.52247 | 36996 ft | 439 kts | 101° |
| 2026-05-07 10:02 | 51.70010 | -4.42579 | 37003 ft | 439 kts | 101° |
| 2026-05-07 10:02 | 51.68814 | -4.32905 | 37006 ft | 439 kts | 102° |
| 2026-05-07 10:03 | 51.67619 | -4.23304 | 37009 ft | 438 kts | 102° |
| 2026-05-07 10:03 | 51.66418 | -4.13722 | 37010 ft | 438 kts | 102° |
| 2026-05-07 10:04 | 51.65203 | -4.04109 | 37010 ft | 438 kts | 102° |
| 2026-05-07 10:04 | 51.63987 | -3.94551 | 37011 ft | 438 kts | 102° |
| 2026-05-07 10:05 | 51.62756 | -3.84944 | 37013 ft | 438 kts | 102° |
| 2026-05-07 10:05 | 51.61523 | -3.75373 | 37016 ft | 438 kts | 102° |
| 2026-05-07 10:06 | 51.60281 | -3.65818 | 37019 ft | 438 kts | 102° |
| 2026-05-07 10:06 | 51.59274 | -3.56154 | 37022 ft | 439 kts | 96° |
| 2026-05-07 10:07 | 51.58695 | -3.46396 | 37025 ft | 439 kts | 95° |
| 2026-05-07 10:07 | 51.58131 | -3.36660 | 37028 ft | 440 kts | 95° |
| 2026-05-07 10:08 | 51.57553 | -3.26886 | 37031 ft | 440 kts | 96° |
| 2026-05-07 10:08 | 51.56965 | -3.17124 | 37033 ft | 441 kts | 96° |
| 2026-05-07 10:09 | 51.56365 | -3.07312 | 37035 ft | 441 kts | 96° |
| 2026-05-07 10:09 | 51.55756 | -2.97485 | 37037 ft | 442 kts | 96° |
| 2026-05-07 10:10 | 51.55139 | -2.87684 | 37039 ft | 442 kts | 96° |
| 2026-05-07 10:10 | 51.54509 | -2.77802 | 37040 ft | 442 kts | 96° |
| 2026-05-07 10:11 | 51.53874 | -2.67969 | 37042 ft | 442 kts | 96° |
| 2026-05-07 10:11 | 51.53229 | -2.58123 | 37042 ft | 442 kts | 96° |
| 2026-05-07 10:12 | 51.52574 | -2.48246 | 37042 ft | 442 kts | 96° |
| 2026-05-07 10:12 | 51.51913 | -2.38422 | 37041 ft | 441 kts | 96° |
| 2026-05-07 10:13 | 51.51246 | -2.28611 | 37042 ft | 441 kts | 97° |
| 2026-05-07 10:13 | 51.50567 | -2.18780 | 37043 ft | 441 kts | 97° |
| 2026-05-07 10:14 | 51.49885 | -2.09028 | 37044 ft | 441 kts | 97° |
| 2026-05-07 10:14 | 51.49190 | -1.99212 | 37046 ft | 440 kts | 97° |
| 2026-05-07 10:15 | 51.48486 | -1.89328 | 36902 ft | 439 kts | 97° |
| 2026-05-07 10:15 | 51.48130 | -1.84392 | 36779 ft | 438 kts | 97° |
| 2026-05-07 10:15 | 51.47774 | -1.79503 | 36657 ft | 437 kts | 97° |
| 2026-05-07 10:15 | 51.47419 | -1.74638 | 36541 ft | 435 kts | 97° |
| 2026-05-07 10:16 | 51.47051 | -1.69842 | 36426 ft | 434 kts | 98° |
| 2026-05-07 10:16 | 51.46545 | -1.65043 | 36310 ft | 432 kts | 101° |
| 2026-05-07 10:16 | 51.45924 | -1.60356 | 36195 ft | 431 kts | 102° |
| 2026-05-07 10:16 | 51.45272 | -1.55596 | 36079 ft | 430 kts | 102° |
| 2026-05-07 10:17 | 51.44630 | -1.50931 | 35965 ft | 429 kts | 102° |
| 2026-05-07 10:17 | 51.43986 | -1.46238 | 35849 ft | 428 kts | 102° |
| 2026-05-07 10:17 | 51.43344 | -1.41563 | 35733 ft | 426 kts | 102° |
| 2026-05-07 10:17 | 51.42697 | -1.36874 | 35616 ft | 425 kts | 102° |
| 2026-05-07 10:18 | 51.42063 | -1.32299 | 35501 ft | 424 kts | 103° |
| 2026-05-07 10:18 | 51.41437 | -1.27799 | 35388 ft | 423 kts | 103° |
| 2026-05-07 10:18 | 51.40778 | -1.23073 | 35252 ft | 422 kts | 103° |
| 2026-05-07 10:18 | 51.40167 | -1.18557 | 35106 ft | 421 kts | 101° |
| 2026-05-07 10:19 | 51.39690 | -1.14052 | 34906 ft | 420 kts | 98° |
| 2026-05-07 10:19 | 51.39359 | -1.09414 | 34730 ft | 419 kts | 95° |
| 2026-05-07 10:19 | 51.39118 | -1.04772 | 34563 ft | 418 kts | 95° |
| 2026-05-07 10:19 | 51.38884 | -1.00129 | 34405 ft | 417 kts | 95° |
| 2026-05-07 10:20 | 51.38647 | -0.95452 | 34246 ft | 416 kts | 95° |
| 2026-05-07 10:20 | 51.38408 | -0.90812 | 34088 ft | 415 kts | 95° |
| 2026-05-07 10:20 | 51.38167 | -0.86196 | 33929 ft | 414 kts | 95° |
| 2026-05-07 10:20 | 51.37923 | -0.81556 | 33757 ft | 413 kts | 95° |
| 2026-05-07 10:21 | 51.37679 | -0.76963 | 33586 ft | 412 kts | 95° |
| 2026-05-07 10:21 | 51.37434 | -0.72384 | 33415 ft | 411 kts | 95° |
| 2026-05-07 10:21 | 51.37186 | -0.67787 | 33244 ft | 410 kts | 95° |
| 2026-05-07 10:21 | 51.36938 | -0.63228 | 33073 ft | 409 kts | 95° |
| 2026-05-07 10:22 | 51.36686 | -0.58616 | 32900 ft | 409 kts | 95° |
| 2026-05-07 10:22 | 51.36431 | -0.54014 | 32727 ft | 408 kts | 95° |
| 2026-05-07 10:22 | 51.36177 | -0.49443 | 32555 ft | 407 kts | 95° |
| 2026-05-07 10:22 | 51.35923 | -0.44908 | 32385 ft | 406 kts | 95° |
| 2026-05-07 10:23 | 51.35664 | -0.40298 | 32211 ft | 405 kts | 95° |
| 2026-05-07 10:23 | 51.35401 | -0.35680 | 32036 ft | 404 kts | 95° |
| 2026-05-07 10:23 | 51.35142 | -0.31150 | 31869 ft | 403 kts | 96° |
| 2026-05-07 10:23 | 51.34884 | -0.26659 | 31720 ft | 402 kts | 96° |
| 2026-05-07 10:24 | 51.34623 | -0.22169 | 31572 ft | 401 kts | 96° |
| 2026-05-07 10:24 | 51.34365 | -0.17747 | 31425 ft | 401 kts | 96° |
| 2026-05-07 10:24 | 51.34101 | -0.13258 | 31313 ft | 400 kts | 96° |
| 2026-05-07 10:25 | 51.33572 | -0.04389 | 31120 ft | 399 kts | 96° |
| 2026-05-07 10:25 | 51.33043 | 0.04471 | 31056 ft | 399 kts | 95° |
| 2026-05-07 10:26 | 51.32635 | 0.13302 | 31067 ft | 399 kts | 94° |
| 2026-05-07 10:26 | 51.32238 | 0.22124 | 31081 ft | 399 kts | 95° |
| 2026-05-07 10:27 | 51.31820 | 0.30968 | 31098 ft | 398 kts | 94° |
| 2026-05-07 10:27 | 51.31398 | 0.39724 | 31100 ft | 396 kts | 94° |
| 2026-05-07 10:28 | 51.30972 | 0.48465 | 31094 ft | 396 kts | 94° |
| 2026-05-07 10:28 | 51.30534 | 0.57282 | 31087 ft | 397 kts | 94° |
| 2026-05-07 10:29 | 51.30166 | 0.66065 | 31011 ft | 398 kts | 93° |
| 2026-05-07 10:29 | 51.30020 | 0.70423 | 30798 ft | 396 kts | 93° |
| 2026-05-07 10:29 | 51.29869 | 0.74816 | 30568 ft | 394 kts | 93° |
| 2026-05-07 10:30 | 51.29559 | 0.83487 | 30110 ft | 391 kts | 93° |
| 2026-05-07 10:30 | 51.29397 | 0.87830 | 29879 ft | 390 kts | 93° |
| 2026-05-07 10:30 | 51.29236 | 0.92124 | 29629 ft | 389 kts | 93° |
| 2026-05-07 10:30 | 51.29073 | 0.96393 | 29354 ft | 387 kts | 93° |
| 2026-05-07 10:31 | 51.28907 | 1.00671 | 29077 ft | 386 kts | 93° |
| 2026-05-07 10:31 | 51.28743 | 1.04926 | 28802 ft | 385 kts | 93° |
| 2026-05-07 10:31 | 51.28578 | 1.09174 | 28526 ft | 383 kts | 93° |
| 2026-05-07 10:31 | 51.28412 | 1.13414 | 28251 ft | 382 kts | 93° |
| 2026-05-07 10:32 | 51.28247 | 1.17600 | 27978 ft | 381 kts | 93° |
| 2026-05-07 10:32 | 51.28079 | 1.21797 | 27704 ft | 380 kts | 93° |
| 2026-05-07 10:32 | 51.27907 | 1.26032 | 27427 ft | 379 kts | 94° |
| 2026-05-07 10:32 | 51.27735 | 1.30226 | 27152 ft | 378 kts | 94° |
| 2026-05-07 10:33 | 51.27564 | 1.34367 | 26879 ft | 377 kts | 94° |
| 2026-05-07 10:33 | 51.27391 | 1.38501 | 26607 ft | 375 kts | 94° |
| 2026-05-07 10:33 | 51.27217 | 1.42625 | 26334 ft | 374 kts | 94° |
| 2026-05-07 10:33 | 51.27041 | 1.46780 | 26059 ft | 373 kts | 94° |
| 2026-05-07 10:34 | 51.26866 | 1.50880 | 25787 ft | 371 kts | 94° |
| 2026-05-07 10:34 | 51.26693 | 1.54951 | 25518 ft | 370 kts | 94° |
| 2026-05-07 10:34 | 51.26517 | 1.59018 | 25261 ft | 368 kts | 94° |
| 2026-05-07 10:34 | 51.26340 | 1.63108 | 25003 ft | 367 kts | 94° |
| 2026-05-07 10:35 | 51.26169 | 1.67019 | 24755 ft | 366 kts | 94° |
| 2026-05-07 10:35 | 51.25992 | 1.71032 | 24502 ft | 365 kts | 94° |
| 2026-05-07 10:35 | 51.25811 | 1.75090 | 24249 ft | 364 kts | 94° |
| 2026-05-07 10:35 | 51.25629 | 1.79124 | 24003 ft | 363 kts | 94° |
| 2026-05-07 10:36 | 51.25448 | 1.83101 | 23760 ft | 362 kts | 94° |
| 2026-05-07 10:36 | 51.25264 | 1.87097 | 23516 ft | 360 kts | 94° |
| 2026-05-07 10:36 | 51.25082 | 1.91017 | 23279 ft | 359 kts | 94° |
| 2026-05-07 10:36 | 51.24896 | 1.95015 | 23082 ft | 358 kts | 94° |
| 2026-05-07 10:37 | 51.24712 | 1.98954 | 23043 ft | 358 kts | 94° |
| 2026-05-07 10:37 | 51.24526 | 2.02941 | 23026 ft | 359 kts | 94° |
| 2026-05-07 10:37 | 51.24342 | 2.06867 | 23029 ft | 359 kts | 94° |
| 2026-05-07 10:37 | 51.24155 | 2.10838 | 23042 ft | 360 kts | 94° |
| 2026-05-07 10:38 | 51.23963 | 2.14829 | 23049 ft | 360 kts | 94° |
| 2026-05-07 10:38 | 51.23770 | 2.18829 | 23052 ft | 360 kts | 94° |
| 2026-05-07 10:38 | 51.23576 | 2.22788 | 23059 ft | 361 kts | 94° |
| 2026-05-07 10:38 | 51.23379 | 2.26784 | 23068 ft | 361 kts | 94° |
| 2026-05-07 10:39 | 51.23183 | 2.30736 | 23073 ft | 361 kts | 94° |
| 2026-05-07 10:39 | 51.22986 | 2.34711 | 23075 ft | 361 kts | 94° |
| 2026-05-07 10:39 | 51.22614 | 2.38680 | 23067 ft | 360 kts | 106° |
| 2026-05-07 10:39 | 51.21667 | 2.42338 | 23068 ft | 360 kts | 120° |
| 2026-05-07 10:40 | 51.20200 | 2.45558 | 23073 ft | 359 kts | 130° |
| 2026-05-07 10:40 | 51.18516 | 2.48650 | 23071 ft | 359 kts | 131° |
| 2026-05-07 10:40 | 51.16851 | 2.51650 | 23070 ft | 359 kts | 131° |
| 2026-05-07 10:40 | 51.15185 | 2.54676 | 23070 ft | 359 kts | 131° |
| 2026-05-07 10:41 | 51.13548 | 2.57677 | 23069 ft | 359 kts | 131° |
| 2026-05-07 10:41 | 51.11925 | 2.60668 | 23069 ft | 359 kts | 131° |
| 2026-05-07 10:41 | 51.10376 | 2.63803 | 23065 ft | 359 kts | 122° |
| 2026-05-07 10:41 | 51.09290 | 2.67381 | 23067 ft | 360 kts | 109° |
| 2026-05-07 10:42 | 51.08682 | 2.71232 | 22979 ft | 361 kts | 102° |
| 2026-05-07 10:42 | 51.08217 | 2.75164 | 22763 ft | 359 kts | 101° |
| 2026-05-07 10:42 | 51.07777 | 2.79056 | 22535 ft | 358 kts | 101° |
| 2026-05-07 10:42 | 51.07333 | 2.82928 | 22295 ft | 356 kts | 101° |
| 2026-05-07 10:43 | 51.06880 | 2.86796 | 22053 ft | 355 kts | 101° |
| 2026-05-07 10:43 | 51.06426 | 2.90607 | 21814 ft | 353 kts | 101° |
| 2026-05-07 10:43 | 51.05965 | 2.94437 | 21563 ft | 352 kts | 101° |
| 2026-05-07 10:43 | 51.05505 | 2.98233 | 21308 ft | 351 kts | 101° |
| 2026-05-07 10:44 | 51.05044 | 3.02019 | 21051 ft | 349 kts | 101° |
| 2026-05-07 10:44 | 51.04580 | 3.05816 | 20793 ft | 348 kts | 101° |
| 2026-05-07 10:44 | 51.04122 | 3.09540 | 20536 ft | 346 kts | 101° |
| 2026-05-07 10:44 | 51.03659 | 3.13300 | 20272 ft | 345 kts | 101° |
| 2026-05-07 10:45 | 51.03197 | 3.17043 | 20009 ft | 344 kts | 101° |
| 2026-05-07 10:45 | 51.02738 | 3.20747 | 19753 ft | 342 kts | 101° |
| 2026-05-07 10:45 | 51.02279 | 3.24444 | 19503 ft | 341 kts | 101° |
| 2026-05-07 10:45 | 51.01823 | 3.28106 | 19264 ft | 340 kts | 101° |
| 2026-05-07 10:46 | 51.01360 | 3.31813 | 18974 ft | 339 kts | 101° |
| 2026-05-07 10:46 | 51.00906 | 3.35434 | 18623 ft | 337 kts | 101° |
| 2026-05-07 10:46 | 51.00451 | 3.39057 | 18238 ft | 335 kts | 101° |
| 2026-05-07 10:46 | 50.99993 | 3.42695 | 17837 ft | 333 kts | 101° |
| 2026-05-07 10:47 | 50.99542 | 3.46270 | 17437 ft | 331 kts | 101° |
| 2026-05-07 10:47 | 50.99090 | 3.49835 | 17036 ft | 329 kts | 101° |
| 2026-05-07 10:47 | 50.98640 | 3.53381 | 16626 ft | 328 kts | 101° |
| 2026-05-07 10:47 | 50.98196 | 3.56866 | 16222 ft | 326 kts | 101° |
| 2026-05-07 10:48 | 50.97744 | 3.60411 | 15817 ft | 324 kts | 101° |
| 2026-05-07 10:48 | 50.97300 | 3.63885 | 15421 ft | 323 kts | 101° |
| 2026-05-07 10:48 | 50.96852 | 3.67378 | 15024 ft | 321 kts | 102° |
| 2026-05-07 10:48 | 50.96407 | 3.70839 | 14632 ft | 319 kts | 102° |
| 2026-05-07 10:49 | 50.95967 | 3.74251 | 14242 ft | 317 kts | 102° |
| 2026-05-07 10:49 | 50.95528 | 3.77645 | 13853 ft | 315 kts | 102° |
| 2026-05-07 10:49 | 50.95090 | 3.81023 | 13468 ft | 313 kts | 102° |
| 2026-05-07 10:49 | 50.94651 | 3.84396 | 13083 ft | 311 kts | 102° |
| 2026-05-07 10:50 | 50.94219 | 3.87710 | 12703 ft | 309 kts | 102° |
| 2026-05-07 10:50 | 50.93785 | 3.91030 | 12321 ft | 307 kts | 102° |
| 2026-05-07 10:50 | 50.93353 | 3.94334 | 11940 ft | 305 kts | 102° |
| 2026-05-07 10:50 | 50.92972 | 3.97619 | 11555 ft | 303 kts | 94° |
| 2026-05-07 10:51 | 50.93104 | 4.00913 | 11175 ft | 300 kts | 76° |
| 2026-05-07 10:51 | 50.93739 | 4.04069 | 10806 ft | 298 kts | 69° |
| 2026-05-07 10:51 | 50.94452 | 4.07097 | 10444 ft | 295 kts | 69° |
| 2026-05-07 10:51 | 50.95179 | 4.10151 | 10153 ft | 290 kts | 69° |
| 2026-05-07 10:52 | 50.95856 | 4.13033 | 10051 ft | 277 kts | 69° |
| 2026-05-07 10:52 | 50.96512 | 4.15860 | 9764 ft | 273 kts | 69° |
| 2026-05-07 10:52 | 50.97165 | 4.18692 | 9432 ft | 271 kts | 69° |
| 2026-05-07 10:52 | 50.97807 | 4.21490 | 9107 ft | 268 kts | 69° |
| 2026-05-07 10:53 | 50.98432 | 4.24226 | 8793 ft | 266 kts | 69° |
| 2026-05-07 10:53 | 50.99057 | 4.26970 | 8477 ft | 264 kts | 69° |
| 2026-05-07 10:53 | 50.99681 | 4.29718 | 8159 ft | 262 kts | 69° |
| 2026-05-07 10:53 | 51.00290 | 4.32403 | 7847 ft | 260 kts | 69° |
| 2026-05-07 10:54 | 51.00901 | 4.35105 | 7530 ft | 258 kts | 69° |
| 2026-05-07 10:54 | 51.01504 | 4.37770 | 7218 ft | 256 kts | 69° |
| 2026-05-07 10:54 | 51.02097 | 4.40402 | 6910 ft | 255 kts | 69° |
| 2026-05-07 10:54 | 51.02692 | 4.43044 | 6599 ft | 253 kts | 69° |
| 2026-05-07 10:55 | 51.03285 | 4.45675 | 6285 ft | 251 kts | 69° |
| 2026-05-07 10:55 | 51.03867 | 4.48265 | 5975 ft | 250 kts | 69° |
| 2026-05-07 10:55 | 51.04452 | 4.50870 | 5662 ft | 249 kts | 69° |
| 2026-05-07 10:55 | 51.05027 | 4.53429 | 5353 ft | 247 kts | 69° |
| 2026-05-07 10:56 | 51.05598 | 4.55971 | 5038 ft | 246 kts | 69° |
| 2026-05-07 10:56 | 51.06171 | 4.58532 | 4723 ft | 245 kts | 69° |
| 2026-05-07 10:56 | 51.06747 | 4.61104 | 4410 ft | 243 kts | 69° |
| 2026-05-07 10:56 | 51.07309 | 4.63620 | 4107 ft | 241 kts | 69° |
| 2026-05-07 10:57 | 51.07867 | 4.66117 | 3807 ft | 238 kts | 70° |
| 2026-05-07 10:57 | 51.08364 | 4.68593 | 3525 ft | 236 kts | 81° |
| 2026-05-07 10:57 | 51.08117 | 4.71074 | 3466 ft | 224 kts | 120° |
| 2026-05-07 10:57 | 51.07049 | 4.72745 | 3431 ft | 213 kts | 153° |
| 2026-05-07 10:58 | 51.05685 | 4.73567 | 3404 ft | 208 kts | 161° |
| 2026-05-07 10:58 | 51.04336 | 4.74278 | 3350 ft | 197 kts | 161° |
| 2026-05-07 10:58 | 51.03065 | 4.74968 | 3263 ft | 195 kts | 160° |
| 2026-05-07 10:58 | 51.01781 | 4.75693 | 3128 ft | 195 kts | 159° |
| 2026-05-07 10:59 | 51.00516 | 4.76419 | 2986 ft | 194 kts | 159° |
| 2026-05-07 10:59 | 50.99234 | 4.77161 | 2691 ft | 197 kts | 159° |
| 2026-05-07 10:59 | 50.97932 | 4.77914 | 2407 ft | 198 kts | 161° |
| 2026-05-07 10:59 | 50.96587 | 4.78075 | 2124 ft | 198 kts | 197° |
| 2026-05-07 11:00 | 50.95501 | 4.76913 | 2056 ft | 182 kts | 234° |
| 2026-05-07 11:00 | 50.94991 | 4.75211 | 2018 ft | 164 kts | 254° |
| 2026-05-07 11:00 | 50.94693 | 4.73545 | 1975 ft | 148 kts | 256° |
| 2026-05-07 11:00 | 50.94408 | 4.72001 | 2004 ft | 146 kts | 254° |
| 2026-05-07 11:01 | 50.94092 | 4.70471 | 2001 ft | 146 kts | 253° |
| 2026-05-07 11:01 | 50.93752 | 4.68941 | 2000 ft | 147 kts | 252° |
| 2026-05-07 11:01 | 50.93404 | 4.67429 | 2001 ft | 147 kts | 251° |
| 2026-05-07 11:01 | 50.93047 | 4.65900 | 1990 ft | 150 kts | 251° |
| 2026-05-07 11:02 | 50.92681 | 4.64332 | 1813 ft | 153 kts | 251° |
| 2026-05-07 11:02 | 50.92310 | 4.62746 | 1606 ft | 153 kts | 251° |
| 2026-05-07 11:02 | 50.91943 | 4.61171 | 1406 ft | 151 kts | 251° |
| 2026-05-07 11:02 | 50.91582 | 4.59617 | 1193 ft | 149 kts | 251° |
| 2026-05-07 11:03 | 50.91235 | 4.58121 | 988 ft | 144 kts | 251° |
| 2026-05-07 11:03 | 50.90894 | 4.56650 | 792 ft | 140 kts | 251° |
| 2026-05-07 11:03 | 50.90562 | 4.55218 | 610 ft | 138 kts | 251° |
| 2026-05-07 11:03 | 50.90228 | 4.53778 | 424 ft | 137 kts | 251° |
| 2026-05-07 11:04 | 50.89902 | 4.52368 | 249 ft | 136 kts | 252° |
| 2026-05-07 11:04 | 50.89608 | 4.51057 | 193 ft | 110 kts | 252° |
| 2026-05-07 11:04 | 50.89396 | 4.50173 | 193 ft | 60 kts | 251° |
| 2026-05-07 11:04 | 50.89345 | 4.49741 | 193 ft | 26 kts | 294° |
| 2026-05-07 11:05 | 50.89409 | 4.49592 | 193 ft | 12 kts | 307° |
| 2026-05-07 11:05 | 50.89463 | 4.49475 | 193 ft | 13 kts | 306° |
| 2026-05-07 11:05 | 50.89523 | 4.49350 | 193 ft | 14 kts | 308° |
| 2026-05-07 11:05 | 50.89588 | 4.49213 | 193 ft | 15 kts | 307° |
| 2026-05-07 11:06 | 50.89684 | 4.49162 | 193 ft | 16 kts | 15° |
| 2026-05-07 11:06 | 50.89799 | 4.49207 | 193 ft | 17 kts | 15° |
| 2026-05-07 11:06 | 50.89914 | 4.49255 | 193 ft | 15 kts | 12° |
| 2026-05-07 11:06 | 50.89954 | 4.49145 | 193 ft | 15 kts | 249° |
| 2026-05-07 11:07 | 50.89908 | 4.48984 | 193 ft | 16 kts | 246° |
| 2026-05-07 11:07 | 50.89878 | 4.48870 | 193 ft | 6 kts | 271° |
| 2026-05-07 11:07 | 50.89914 | 4.48823 | 193 ft | 8 kts | 337° |
| 2026-05-07 11:07 | 50.89954 | 4.48795 | 193 ft | 3 kts | 335° |
| 2026-05-07 11:08 | 50.89963 | 4.48787 | 193 ft | 0 kts | 335° |
| 2026-05-07 11:08 | 50.89962 | 4.48787 | 193 ft | 0 kts | 335° |